sensor_id;sensor_type;location;lat;lon;timestamp;temperature;humidity
43647;DHT22;56152;49.996;18.980;2023-04-01T00:00:58;9.00;87.20
43647;DHT22;56152;49.996;18.980;2023-04-01T00:06:06;9.00;87.30
43647;DHT22;56152;49.996;18.980;2023-04-01T00:11:09;9.00;87.30
43647;DHT22;56152;49.996;18.980;2023-04-01T00:16:12;8.90;87.40
43647;DHT22;56152;49.996;18.980;2023-04-01T00:21:17;8.90;87.50
43647;DHT22;56152;49.996;18.980;2023-04-01T00:26:22;8.90;87.70
43647;DHT22;56152;49.996;18.980;2023-04-01T00:31:26;8.90;87.70
43647;DHT22;56152;49.996;18.980;2023-04-01T00:36:30;8.90;87.80
43647;DHT22;56152;49.996;18.980;2023-04-01T00:41:32;8.80;87.90
43647;DHT22;56152;49.996;18.980;2023-04-01T00:46:35;8.70;88.10
43647;DHT22;56152;49.996;18.980;2023-04-01T00:51:44;8.70;88.30
43647;DHT22;56152;49.996;18.980;2023-04-01T00:56:49;8.50;88.50
43647;DHT22;56152;49.996;18.980;2023-04-01T01:01:57;8.40;88.80
43647;DHT22;56152;49.996;18.980;2023-04-01T01:07:10;8.30;88.90
43647;DHT22;56152;49.996;18.980;2023-04-01T01:12:20;8.20;89.20
43647;DHT22;56152;49.996;18.980;2023-04-01T01:17:32;8.20;89.50
43647;DHT22;56152;49.996;18.980;2023-04-01T01:22:55;8.20;89.60
43647;DHT22;56152;49.996;18.980;2023-04-01T01:28:11;8.10;90.20
43647;DHT22;56152;49.996;18.980;2023-04-01T01:33:38;8.00;90.00
43647;DHT22;56152;49.996;18.980;2023-04-01T01:38:45;7.90;90.10
43647;DHT22;56152;49.996;18.980;2023-04-01T01:43:53;7.90;90.20
43647;DHT22;56152;49.996;18.980;2023-04-01T01:48:59;7.90;90.20
43647;DHT22;56152;49.996;18.980;2023-04-01T01:54:05;8.00;90.20
43647;DHT22;56152;49.996;18.980;2023-04-01T01:59:10;7.90;90.30
43647;DHT22;56152;49.996;18.980;2023-04-01T02:04:14;8.00;90.40
43647;DHT22;56152;49.996;18.980;2023-04-01T02:09:20;8.00;90.40
43647;DHT22;56152;49.996;18.980;2023-04-01T02:14:23;8.10;90.40
43647;DHT22;56152;49.996;18.980;2023-04-01T02:19:32;8.10;90.30
43647;DHT22;56152;49.996;18.980;2023-04-01T02:24:38;8.10;90.40
43647;DHT22;56152;49.996;18.980;2023-04-01T02:29:42;8.00;90.40
43647;DHT22;56152;49.996;18.980;2023-04-01T02:34:46;8.00;90.50
43647;DHT22;56152;49.996;18.980;2023-04-01T02:39:50;8.00;90.60
43647;DHT22;56152;49.996;18.980;2023-04-01T02:44:55;8.00;90.60
43647;DHT22;56152;49.996;18.980;2023-04-01T02:50:00;8.00;90.70
43647;DHT22;56152;49.996;18.980;2023-04-01T02:55:05;8.00;90.70
43647;DHT22;56152;49.996;18.980;2023-04-01T03:00:08;8.00;90.70
43647;DHT22;56152;49.996;18.980;2023-04-01T03:05:15;8.10;90.80
43647;DHT22;56152;49.996;18.980;2023-04-01T03:10:20;8.10;90.70
43647;DHT22;56152;49.996;18.980;2023-04-01T03:15:24;8.20;90.80
43647;DHT22;56152;49.996;18.980;2023-04-01T03:20:27;8.20;90.80
43647;DHT22;56152;49.996;18.980;2023-04-01T03:25:32;8.30;90.80
43647;DHT22;56152;49.996;18.980;2023-04-01T03:30:34;8.30;90.80
43647;DHT22;56152;49.996;18.980;2023-04-01T03:35:37;8.30;90.80
43647;DHT22;56152;49.996;18.980;2023-04-01T03:40:44;8.30;90.80
43647;DHT22;56152;49.996;18.980;2023-04-01T03:45:48;8.20;90.90
43647;DHT22;56152;49.996;18.980;2023-04-01T03:50:52;8.20;91.10
43647;DHT22;56152;49.996;18.980;2023-04-01T03:55:56;8.10;91.20
43647;DHT22;56152;49.996;18.980;2023-04-01T04:00:58;8.10;91.40
43647;DHT22;56152;49.996;18.980;2023-04-01T04:06:00;8.00;91.40
43647;DHT22;56152;49.996;18.980;2023-04-01T04:11:05;8.00;91.60
43647;DHT22;56152;49.996;18.980;2023-04-01T04:16:08;7.90;91.70
43647;DHT22;56152;49.996;18.980;2023-04-01T04:21:12;7.90;91.80
43647;DHT22;56152;49.996;18.980;2023-04-01T04:26:16;7.90;91.90
43647;DHT22;56152;49.996;18.980;2023-04-01T04:31:20;7.90;92.20
43647;DHT22;56152;49.996;18.980;2023-04-01T04:36:22;7.90;91.90
43647;DHT22;56152;49.996;18.980;2023-04-01T04:41:26;8.00;91.90
43647;DHT22;56152;49.996;18.980;2023-04-01T04:46:29;8.00;91.90
43647;DHT22;56152;49.996;18.980;2023-04-01T04:51:39;8.00;92.00
43647;DHT22;56152;49.996;18.980;2023-04-01T04:56:45;8.10;92.00
43647;DHT22;56152;49.996;18.980;2023-04-01T05:01:48;8.10;91.90
43647;DHT22;56152;49.996;18.980;2023-04-01T05:06:51;8.10;91.90
43647;DHT22;56152;49.996;18.980;2023-04-01T05:11:58;8.20;91.90
43647;DHT22;56152;49.996;18.980;2023-04-01T05:17:08;8.10;91.80
43647;DHT22;56152;49.996;18.980;2023-04-01T05:22:11;8.10;91.90
43647;DHT22;56152;49.996;18.980;2023-04-01T05:27:15;8.10;91.90
43647;DHT22;56152;49.996;18.980;2023-04-01T05:32:17;8.10;91.90
43647;DHT22;56152;49.996;18.980;2023-04-01T05:37:20;8.10;91.90
43647;DHT22;56152;49.996;18.980;2023-04-01T05:42:25;8.20;91.80
43647;DHT22;56152;49.996;18.980;2023-04-01T05:47:28;8.30;91.80
43647;DHT22;56152;49.996;18.980;2023-04-01T05:52:30;8.40;91.70
43647;DHT22;56152;49.996;18.980;2023-04-01T05:57:37;8.60;91.60
43647;DHT22;56152;49.996;18.980;2023-04-01T06:02:39;8.70;91.50
43647;DHT22;56152;49.996;18.980;2023-04-01T06:07:42;8.80;91.40
43647;DHT22;56152;49.996;18.980;2023-04-01T06:13:02;8.90;91.30
43647;DHT22;56152;49.996;18.980;2023-04-01T06:18:38;9.00;91.20
43647;DHT22;56152;49.996;18.980;2023-04-01T06:23:54;9.10;91.10
43647;DHT22;56152;49.996;18.980;2023-04-01T06:29:17;9.10;91.00
43647;DHT22;56152;49.996;18.980;2023-04-01T06:34:43;9.10;91.10
43647;DHT22;56152;49.996;18.980;2023-04-01T06:40:12;9.20;90.90
43647;DHT22;56152;49.996;18.980;2023-04-01T06:45:32;9.20;90.90
43647;DHT22;56152;49.996;18.980;2023-04-01T06:50:43;9.30;90.80
43647;DHT22;56152;49.996;18.980;2023-04-01T06:55:50;9.30;90.70
43647;DHT22;56152;49.996;18.980;2023-04-01T07:00:57;9.40;90.70
43647;DHT22;56152;49.996;18.980;2023-04-01T07:06:05;9.50;90.60
43647;DHT22;56152;49.996;18.980;2023-04-01T07:11:10;9.50;90.50
43647;DHT22;56152;49.996;18.980;2023-04-01T07:16:16;9.70;90.60
43647;DHT22;56152;49.996;18.980;2023-04-01T07:21:25;10.00;90.30
43647;DHT22;56152;49.996;18.980;2023-04-01T07:26:34;10.30;90.10
43647;DHT22;56152;49.996;18.980;2023-04-01T07:32:03;10.50;89.60
43647;DHT22;56152;49.996;18.980;2023-04-01T07:37:12;10.80;89.10
43647;DHT22;56152;49.996;18.980;2023-04-01T07:42:21;11.00;88.60
43647;DHT22;56152;49.996;18.980;2023-04-01T07:47:39;11.10;88.20
43647;DHT22;56152;49.996;18.980;2023-04-01T07:52:48;11.20;88.00
43647;DHT22;56152;49.996;18.980;2023-04-01T07:58:03;11.20;87.90
43647;DHT22;56152;49.996;18.980;2023-04-01T08:03:33;11.30;87.60
43647;DHT22;56152;49.996;18.980;2023-04-01T08:08:47;11.20;88.00
43647;DHT22;56152;49.996;18.980;2023-04-01T08:14:01;11.10;88.10
43647;DHT22;56152;49.996;18.980;2023-04-01T08:19:17;10.90;88.40
43647;DHT22;56152;49.996;18.980;2023-04-01T08:24:25;10.70;88.80
43647;DHT22;56152;49.996;18.980;2023-04-01T08:29:37;10.70;89.30
43647;DHT22;56152;49.996;18.980;2023-04-01T08:34:54;10.80;89.30
43647;DHT22;56152;49.996;18.980;2023-04-01T08:40:01;10.80;89.20
43647;DHT22;56152;49.996;18.980;2023-04-01T08:45:21;10.80;89.20
43647;DHT22;56152;49.996;18.980;2023-04-01T08:56:06;10.50;90.00
43647;DHT22;56152;49.996;18.980;2023-04-01T09:01:16;10.40;89.90
43647;DHT22;56152;49.996;18.980;2023-04-01T09:06:40;10.50;90.40
43647;DHT22;56152;49.996;18.980;2023-04-01T09:17:57;11.00;89.20
43647;DHT22;56152;49.996;18.980;2023-04-01T09:23:29;11.10;89.10
43647;DHT22;56152;49.996;18.980;2023-04-01T09:28:42;10.90;89.50
43647;DHT22;56152;49.996;18.980;2023-04-01T09:39:34;10.90;90.50
43647;DHT22;56152;49.996;18.980;2023-04-01T09:44:44;11.40;90.40
43647;DHT22;56152;49.996;18.980;2023-04-01T09:50:14;12.20;89.60
43647;DHT22;56152;49.996;18.980;2023-04-01T10:01:29;13.10;86.50
43647;DHT22;56152;49.996;18.980;2023-04-01T10:18:24;12.00;87.90
43647;DHT22;56152;49.996;18.980;2023-04-01T10:35:14;11.50;88.70
43647;DHT22;56152;49.996;18.980;2023-04-01T10:40:42;11.50;89.10
43647;DHT22;56152;49.996;18.980;2023-04-01T10:57:58;13.50;84.70
43647;DHT22;56152;49.996;18.980;2023-04-01T11:26:07;13.10;83.10
43647;DHT22;56152;49.996;18.980;2023-04-01T11:31:39;12.80;84.40
43647;DHT22;56152;49.996;18.980;2023-04-01T11:36:56;12.30;84.90
43647;DHT22;56152;49.996;18.980;2023-04-01T11:42:09;11.80;86.80
43647;DHT22;56152;49.996;18.980;2023-04-01T11:47:28;11.70;88.70
43647;DHT22;56152;49.996;18.980;2023-04-01T11:58:42;12.20;88.10
43647;DHT22;56152;49.996;18.980;2023-04-01T12:09:23;12.20;87.40
43647;DHT22;56152;49.996;18.980;2023-04-01T12:14:36;12.10;86.90
43647;DHT22;56152;49.996;18.980;2023-04-01T12:19:44;12.10;87.10
43647;DHT22;56152;49.996;18.980;2023-04-01T12:24:54;12.30;86.70
43647;DHT22;56152;49.996;18.980;2023-04-01T12:30:05;12.20;86.70
43647;DHT22;56152;49.996;18.980;2023-04-01T12:35:24;12.20;86.90
43647;DHT22;56152;49.996;18.980;2023-04-01T12:40:40;12.10;86.70
43647;DHT22;56152;49.996;18.980;2023-04-01T12:45:57;12.10;87.20
43647;DHT22;56152;49.996;18.980;2023-04-01T12:51:29;12.50;87.20
43647;DHT22;56152;49.996;18.980;2023-04-01T12:56:46;12.80;86.30
43647;DHT22;56152;49.996;18.980;2023-04-01T13:02:16;12.50;85.90
43647;DHT22;56152;49.996;18.980;2023-04-01T13:07:38;12.30;86.50
43647;DHT22;56152;49.996;18.980;2023-04-01T13:13:00;12.20;87.10
43647;DHT22;56152;49.996;18.980;2023-04-01T13:18:17;12.30;87.20
43647;DHT22;56152;49.996;18.980;2023-04-01T13:23:36;12.40;87.10
43647;DHT22;56152;49.996;18.980;2023-04-01T13:28:52;12.20;86.80
43647;DHT22;56152;49.996;18.980;2023-04-01T13:34:08;11.80;87.10
43647;DHT22;56152;49.996;18.980;2023-04-01T13:39:27;11.40;88.70
43647;DHT22;56152;49.996;18.980;2023-04-01T13:44:38;11.10;90.10
43647;DHT22;56152;49.996;18.980;2023-04-01T13:50:12;11.00;90.40
43647;DHT22;56152;49.996;18.980;2023-04-01T13:55:53;11.00;90.60
43647;DHT22;56152;49.996;18.980;2023-04-01T14:01:05;11.10;90.70
43647;DHT22;56152;49.996;18.980;2023-04-01T14:06:16;11.20;90.60
43647;DHT22;56152;49.996;18.980;2023-04-01T14:11:27;11.40;90.50
43647;DHT22;56152;49.996;18.980;2023-04-01T14:17:02;11.50;90.50
43647;DHT22;56152;49.996;18.980;2023-04-01T14:22:19;11.80;90.30
43647;DHT22;56152;49.996;18.980;2023-04-01T14:27:34;11.80;90.10
43647;DHT22;56152;49.996;18.980;2023-04-01T14:32:51;11.90;90.10
43647;DHT22;56152;49.996;18.980;2023-04-01T14:48:59;13.10;88.30
43647;DHT22;56152;49.996;18.980;2023-04-01T14:54:14;13.00;88.70
43647;DHT22;56152;49.996;18.980;2023-04-01T14:59:27;12.90;87.90
43647;DHT22;56152;49.996;18.980;2023-04-01T15:04:54;12.80;87.90
43647;DHT22;56152;49.996;18.980;2023-04-01T15:10:03;12.80;87.70
43647;DHT22;56152;49.996;18.980;2023-04-01T15:15:20;12.80;87.40
43647;DHT22;56152;49.996;18.980;2023-04-01T15:20:35;12.70;86.80
43647;DHT22;56152;49.996;18.980;2023-04-01T15:25:50;12.70;86.70
43647;DHT22;56152;49.996;18.980;2023-04-01T15:30:57;12.60;86.80
43647;DHT22;56152;49.996;18.980;2023-04-01T15:36:12;12.50;86.30
43647;DHT22;56152;49.996;18.980;2023-04-01T15:41:23;12.40;86.20
43647;DHT22;56152;49.996;18.980;2023-04-01T15:46:44;12.40;85.70
43647;DHT22;56152;49.996;18.980;2023-04-01T15:51:58;12.30;86.60
43647;DHT22;56152;49.996;18.980;2023-04-01T15:57:23;11.90;86.70
43647;DHT22;56152;49.996;18.980;2023-04-01T16:02:32;11.50;87.90
43647;DHT22;56152;49.996;18.980;2023-04-01T16:07:46;11.20;89.00
43647;DHT22;56152;49.996;18.980;2023-04-01T16:13:03;10.90;89.90
43647;DHT22;56152;49.996;18.980;2023-04-01T16:18:28;10.70;90.30
43647;DHT22;56152;49.996;18.980;2023-04-01T16:23:42;10.60;90.60
43647;DHT22;56152;49.996;18.980;2023-04-01T16:28:54;10.50;90.90
43647;DHT22;56152;49.996;18.980;2023-04-01T16:34:03;10.30;91.10
43647;DHT22;56152;49.996;18.980;2023-04-01T16:39:28;10.30;91.30
43647;DHT22;56152;49.996;18.980;2023-04-01T16:44:46;10.10;91.40
43647;DHT22;56152;49.996;18.980;2023-04-01T16:49:59;10.00;91.60
43647;DHT22;56152;49.996;18.980;2023-04-01T16:55:16;10.00;91.70
43647;DHT22;56152;49.996;18.980;2023-04-01T17:00:38;9.90;91.90
43647;DHT22;56152;49.996;18.980;2023-04-01T17:05:55;9.80;92.00
43647;DHT22;56152;49.996;18.980;2023-04-01T17:11:03;9.80;92.10
43647;DHT22;56152;49.996;18.980;2023-04-01T17:16:41;9.80;92.20
43647;DHT22;56152;49.996;18.980;2023-04-01T17:21:57;9.70;92.10
43647;DHT22;56152;49.996;18.980;2023-04-01T17:27:11;9.60;92.20
43647;DHT22;56152;49.996;18.980;2023-04-01T17:32:28;9.60;92.30
43647;DHT22;56152;49.996;18.980;2023-04-01T17:37:45;9.60;92.40
43647;DHT22;56152;49.996;18.980;2023-04-01T17:42:57;9.70;92.40
43647;DHT22;56152;49.996;18.980;2023-04-01T17:48:15;9.70;92.40
43647;DHT22;56152;49.996;18.980;2023-04-01T17:53:33;9.80;92.50
43647;DHT22;56152;49.996;18.980;2023-04-01T17:58:45;9.80;92.40
43647;DHT22;56152;49.996;18.980;2023-04-01T18:04:09;9.70;92.40
43647;DHT22;56152;49.996;18.980;2023-04-01T18:09:22;9.70;92.40
43647;DHT22;56152;49.996;18.980;2023-04-01T18:14:53;9.70;92.40
43647;DHT22;56152;49.996;18.980;2023-04-01T18:20:14;9.60;92.50
43647;DHT22;56152;49.996;18.980;2023-04-01T18:25:34;9.60;92.60
43647;DHT22;56152;49.996;18.980;2023-04-01T18:30:42;9.60;92.60
43647;DHT22;56152;49.996;18.980;2023-04-01T18:36:13;9.60;92.70
43647;DHT22;56152;49.996;18.980;2023-04-01T18:41:28;9.50;92.80
43647;DHT22;56152;49.996;18.980;2023-04-01T18:46:39;9.50;92.90
43647;DHT22;56152;49.996;18.980;2023-04-01T18:51:54;9.50;92.90
43647;DHT22;56152;49.996;18.980;2023-04-01T18:57:10;9.40;92.90
43647;DHT22;56152;49.996;18.980;2023-04-01T19:02:25;9.40;92.90
43647;DHT22;56152;49.996;18.980;2023-04-01T19:07:57;9.30;93.00
43647;DHT22;56152;49.996;18.980;2023-04-01T19:13:21;9.20;93.00
43647;DHT22;56152;49.996;18.980;2023-04-01T19:18:43;9.20;93.00
43647;DHT22;56152;49.996;18.980;2023-04-01T19:24:15;9.10;93.10
43647;DHT22;56152;49.996;18.980;2023-04-01T19:29:34;9.10;93.10
43647;DHT22;56152;49.996;18.980;2023-04-01T19:34:49;9.10;93.20
43647;DHT22;56152;49.996;18.980;2023-04-01T19:45:31;9.00;93.10
43647;DHT22;56152;49.996;18.980;2023-04-01T19:50:41;9.00;93.10
43647;DHT22;56152;49.996;18.980;2023-04-01T19:55:49;9.00;93.10
43647;DHT22;56152;49.996;18.980;2023-04-01T20:00:58;9.00;93.20
43647;DHT22;56152;49.996;18.980;2023-04-01T20:06:15;9.00;93.20
43647;DHT22;56152;49.996;18.980;2023-04-01T20:11:38;9.00;93.30
43647;DHT22;56152;49.996;18.980;2023-04-01T20:16:50;9.00;93.30
43647;DHT22;56152;49.996;18.980;2023-04-01T20:21:57;9.00;93.30
43647;DHT22;56152;49.996;18.980;2023-04-01T20:27:10;9.00;93.40
43647;DHT22;56152;49.996;18.980;2023-04-01T20:32:37;9.00;93.40
43647;DHT22;56152;49.996;18.980;2023-04-01T20:37:48;9.00;93.50
43647;DHT22;56152;49.996;18.980;2023-04-01T20:43:27;9.00;93.50
43647;DHT22;56152;49.996;18.980;2023-04-01T20:49:01;8.90;93.50
43647;DHT22;56152;49.996;18.980;2023-04-01T20:54:22;8.90;93.60
43647;DHT22;56152;49.996;18.980;2023-04-01T20:59:53;8.90;93.60
43647;DHT22;56152;49.996;18.980;2023-04-01T21:05:26;8.80;93.70
43647;DHT22;56152;49.996;18.980;2023-04-01T21:10:38;8.80;93.70
43647;DHT22;56152;49.996;18.980;2023-04-01T21:16:00;8.80;93.70
43647;DHT22;56152;49.996;18.980;2023-04-01T21:21:46;8.70;93.80
43647;DHT22;56152;49.996;18.980;2023-04-01T21:26:54;8.70;93.80
43647;DHT22;56152;49.996;18.980;2023-04-01T21:32:17;8.60;93.90
43647;DHT22;56152;49.996;18.980;2023-04-01T21:37:53;8.60;94.00
43647;DHT22;56152;49.996;18.980;2023-04-01T21:43:08;8.50;94.00
43647;DHT22;56152;49.996;18.980;2023-04-01T21:48:42;8.40;94.10
43647;DHT22;56152;49.996;18.980;2023-04-01T21:54:07;8.40;94.10
43647;DHT22;56152;49.996;18.980;2023-04-01T21:59:46;8.30;94.20
43647;DHT22;56152;49.996;18.980;2023-04-01T22:05:07;8.30;94.20
43647;DHT22;56152;49.996;18.980;2023-04-01T22:10:20;8.30;94.40
43647;DHT22;56152;49.996;18.980;2023-04-01T22:15:48;8.30;94.40
43647;DHT22;56152;49.996;18.980;2023-04-01T22:20:56;8.40;94.40
43647;DHT22;56152;49.996;18.980;2023-04-01T22:26:10;8.40;94.40
43647;DHT22;56152;49.996;18.980;2023-04-01T22:31:21;8.40;94.40
43647;DHT22;56152;49.996;18.980;2023-04-01T22:36:31;8.40;94.40
43647;DHT22;56152;49.996;18.980;2023-04-01T22:41:48;8.40;94.50
43647;DHT22;56152;49.996;18.980;2023-04-01T22:46:56;8.40;94.50
43647;DHT22;56152;49.996;18.980;2023-04-01T22:52:09;8.40;94.50
43647;DHT22;56152;49.996;18.980;2023-04-01T22:57:28;8.40;94.50
43647;DHT22;56152;49.996;18.980;2023-04-01T23:02:37;8.40;94.60
43647;DHT22;56152;49.996;18.980;2023-04-01T23:07:49;8.40;94.50
43647;DHT22;56152;49.996;18.980;2023-04-01T23:12:57;8.40;94.60
43647;DHT22;56152;49.996;18.980;2023-04-01T23:18:18;8.40;94.60
43647;DHT22;56152;49.996;18.980;2023-04-01T23:23:33;8.50;94.60
43647;DHT22;56152;49.996;18.980;2023-04-01T23:28:45;8.50;94.60
43647;DHT22;56152;49.996;18.980;2023-04-01T23:33:56;8.50;94.60
43647;DHT22;56152;49.996;18.980;2023-04-01T23:39:21;8.50;94.70
43647;DHT22;56152;49.996;18.980;2023-04-01T23:44:25;8.50;94.70
43647;DHT22;56152;49.996;18.980;2023-04-01T23:49:40;8.50;94.70
43647;DHT22;56152;49.996;18.980;2023-04-01T23:54:57;8.50;94.70
